KCLK/CLK METAR and TAF weather

Enter ICAO airport designator
Station Type Date Time Source
KCLK METAR 2020/01/22 21:15 UTC NOAA

KCLK 222115Z AUTO 14010KT 2SM BR OVC003 05/05 A2984 RMK AO2 PNO TSNO


Station Type Date Time Source
KCLK Decoded METAR 2020/01/22 21:15 UTC NOAA

Clinton, Clinton Regional Airport, OK, United States (KCLK) 35-32-17N 098-55-17W
Jan 22, 2020 - 04:15 PM EST / 2020.01.22 2115 UTC
Wind: from the SE (140 degrees) at 12 MPH (10 KT):0
Visibility: 2 mile(s):0
Sky conditions: overcast
Weather: mist
Temperature: 41 F (5 C)
Dew Point: 41 F (5 C)
Relative Humidity: 100%
Pressure (altimeter): 29.84 in. Hg (1010 hPa)
ob: KCLK 222115Z AUTO 14010KT 2SM BR OVC003 05/05 A2984 RMK AO2 PNO TSNO
cycle: 21

Station Type Date Time Source
KCLK TAF UTC NOAA

Error!

Example: see airport list